sensor_id;sensor_type;location;lat;lon;timestamp;pressure;altitude;pressure_sealevel;temperature;humidity
42105;BME280;61464;51.472;5.712;2022-09-02T00:01:44;101503.81;;;15.83;60.49
42105;BME280;61464;51.472;5.712;2022-09-02T00:04:21;101506.69;;;15.88;60.96
42105;BME280;61464;51.472;5.712;2022-09-02T00:06:49;101507.13;;;15.77;60.66
42105;BME280;61464;51.472;5.712;2022-09-02T00:09:18;101509.53;;;15.79;60.87
42105;BME280;61464;51.472;5.712;2022-09-02T00:11:46;101505.19;;;15.71;60.71
42105;BME280;61464;51.472;5.712;2022-09-02T00:14:22;101498.50;;;15.60;61.19
42105;BME280;61464;51.472;5.712;2022-09-02T00:16:48;101502.41;;;15.64;61.27
42105;BME280;61464;51.472;5.712;2022-09-02T00:19:23;101502.25;;;15.66;60.71
42105;BME280;61464;51.472;5.712;2022-09-02T00:21:51;101501.59;;;15.64;60.97
42105;BME280;61464;51.472;5.712;2022-09-02T00:24:17;101496.44;;;15.56;61.35
42105;BME280;61464;51.472;5.712;2022-09-02T00:26:44;101498.06;;;15.57;61.14
42105;BME280;61464;51.472;5.712;2022-09-02T00:29:11;101490.38;;;15.55;61.09
42105;BME280;61464;51.472;5.712;2022-09-02T00:31:40;101487.66;;;15.48;61.28
42105;BME280;61464;51.472;5.712;2022-09-02T00:34:07;101486.97;;;15.55;61.64
42105;BME280;61464;51.472;5.712;2022-09-02T00:36:33;101464.97;;;15.41;61.13
42105;BME280;61464;51.472;5.712;2022-09-02T00:38:59;101475.44;;;15.41;61.50
42105;BME280;61464;51.472;5.712;2022-09-02T00:41:28;101486.81;;;15.48;61.83
42105;BME280;61464;51.472;5.712;2022-09-02T00:44:01;101485.88;;;15.41;62.23
42105;BME280;61464;51.472;5.712;2022-09-02T00:46:30;101475.81;;;15.29;62.28
42105;BME280;61464;51.472;5.712;2022-09-02T00:51:22;101482.31;;;15.34;62.17
42105;BME280;61464;51.472;5.712;2022-09-02T00:53:49;101465.19;;;15.31;62.18
42105;BME280;61464;51.472;5.712;2022-09-02T00:56:22;101478.41;;;15.29;62.22
42105;BME280;61464;51.472;5.712;2022-09-02T00:58:50;101475.34;;;15.26;62.32
42105;BME280;61464;51.472;5.712;2022-09-02T01:01:17;101469.81;;;15.21;62.71
42105;BME280;61464;51.472;5.712;2022-09-02T01:03:43;101478.81;;;15.18;62.17
42105;BME280;61464;51.472;5.712;2022-09-02T01:06:12;101470.84;;;15.12;62.46
42105;BME280;61464;51.472;5.712;2022-09-02T01:08:44;101473.78;;;15.08;63.01
42105;BME280;61464;51.472;5.712;2022-09-02T01:11:12;101461.56;;;15.01;63.20
42105;BME280;61464;51.472;5.712;2022-09-02T01:13:41;101464.06;;;14.94;63.20
42105;BME280;61464;51.472;5.712;2022-09-02T01:16:24;101463.72;;;14.97;63.43
42105;BME280;61464;51.472;5.712;2022-09-02T01:18:55;101467.66;;;14.93;63.57
42105;BME280;61464;51.472;5.712;2022-09-02T01:21:23;101467.66;;;14.93;63.34
42105;BME280;61464;51.472;5.712;2022-09-02T01:23:50;101461.63;;;14.84;63.58
42105;BME280;61464;51.472;5.712;2022-09-02T01:26:17;101456.09;;;14.79;63.39
42105;BME280;61464;51.472;5.712;2022-09-02T01:28:43;101453.81;;;14.76;63.73
42105;BME280;61464;51.472;5.712;2022-09-02T01:31:09;101457.75;;;14.72;63.94
42105;BME280;61464;51.472;5.712;2022-09-02T01:33:35;101455.97;;;14.73;63.95
42105;BME280;61464;51.472;5.712;2022-09-02T01:36:02;101456.28;;;14.69;64.10
42105;BME280;61464;51.472;5.712;2022-09-02T01:38:30;101459.06;;;14.68;64.26
42105;BME280;61464;51.472;5.712;2022-09-02T01:40:55;101457.09;;;14.70;64.27
42105;BME280;61464;51.472;5.712;2022-09-02T01:43:25;101450.94;;;14.63;64.24
42105;BME280;61464;51.472;5.712;2022-09-02T01:45:54;101452.41;;;14.57;64.76
42105;BME280;61464;51.472;5.712;2022-09-02T01:48:21;101450.81;;;14.56;64.85
42105;BME280;61464;51.472;5.712;2022-09-02T01:50:54;101457.47;;;14.51;64.66
42105;BME280;61464;51.472;5.712;2022-09-02T01:53:20;101453.22;;;14.49;65.45
42105;BME280;61464;51.472;5.712;2022-09-02T01:55:46;101450.94;;;14.46;65.55
42105;BME280;61464;51.472;5.712;2022-09-02T01:58:12;101450.97;;;14.38;66.04
42105;BME280;61464;51.472;5.712;2022-09-02T02:00:38;101454.38;;;14.39;66.54
42105;BME280;61464;51.472;5.712;2022-09-02T02:03:04;101450.81;;;14.32;67.02
42105;BME280;61464;51.472;5.712;2022-09-02T02:05:30;101448.22;;;14.23;67.47
42105;BME280;61464;51.472;5.712;2022-09-02T02:07:57;101437.13;;;14.21;66.90
42105;BME280;61464;51.472;5.712;2022-09-02T02:10:23;101454.91;;;14.26;67.12
42105;BME280;61464;51.472;5.712;2022-09-02T02:12:49;101438.59;;;14.16;67.48
42105;BME280;61464;51.472;5.712;2022-09-02T02:15:17;101455.56;;;14.12;67.61
42105;BME280;61464;51.472;5.712;2022-09-02T02:17:44;101446.94;;;14.11;67.81
42105;BME280;61464;51.472;5.712;2022-09-02T02:20:12;101454.94;;;14.01;68.03
42105;BME280;61464;51.472;5.712;2022-09-02T02:22:40;101437.16;;;14.05;67.42
42105;BME280;61464;51.472;5.712;2022-09-02T02:25:07;101449.84;;;14.08;67.69
42105;BME280;61464;51.472;5.712;2022-09-02T02:27:33;101446.09;;;14.02;67.43
42105;BME280;61464;51.472;5.712;2022-09-02T02:29:59;101451.00;;;14.05;66.98
42105;BME280;61464;51.472;5.712;2022-09-02T02:32:25;101452.81;;;14.05;67.51
42105;BME280;61464;51.472;5.712;2022-09-02T02:34:51;101448.72;;;13.94;68.18
42105;BME280;61464;51.472;5.712;2022-09-02T02:37:17;101442.38;;;13.88;68.60
42105;BME280;61464;51.472;5.712;2022-09-02T02:39:43;101438.78;;;13.89;68.22
42105;BME280;61464;51.472;5.712;2022-09-02T02:42:09;101436.97;;;13.98;67.85
42105;BME280;61464;51.472;5.712;2022-09-02T02:44:38;101431.59;;;13.92;67.57
42105;BME280;61464;51.472;5.712;2022-09-02T02:47:06;101436.97;;;13.98;67.71
42105;BME280;61464;51.472;5.712;2022-09-02T02:49:37;101444.00;;;13.98;67.60
42105;BME280;61464;51.472;5.712;2022-09-02T02:52:03;101438.13;;;13.96;68.06
42105;BME280;61464;51.472;5.712;2022-09-02T02:54:29;101436.66;;;13.93;67.87
42105;BME280;61464;51.472;5.712;2022-09-02T02:56:55;101441.38;;;13.89;68.30
42105;BME280;61464;51.472;5.712;2022-09-02T02:59:21;101429.16;;;13.90;68.57
42105;BME280;61464;51.472;5.712;2022-09-02T03:01:46;101435.50;;;13.87;68.42
42105;BME280;61464;51.472;5.712;2022-09-02T03:04:12;101427.19;;;13.84;68.88
42105;BME280;61464;51.472;5.712;2022-09-02T03:06:38;101433.72;;;13.88;68.80
42105;BME280;61464;51.472;5.712;2022-09-02T03:09:04;101432.91;;;13.96;68.15
42105;BME280;61464;51.472;5.712;2022-09-02T03:11:30;101432.41;;;13.92;68.77
42105;BME280;61464;51.472;5.712;2022-09-02T03:13:56;101432.91;;;13.96;68.68
42105;BME280;61464;51.472;5.712;2022-09-02T03:16:23;101428.19;;;13.99;68.23
42105;BME280;61464;51.472;5.712;2022-09-02T03:18:50;101428.81;;;14.01;68.16
42105;BME280;61464;51.472;5.712;2022-09-02T03:21:17;101430.44;;;13.94;68.62
42105;BME280;61464;51.472;5.712;2022-09-02T03:23:44;101421.50;;;13.97;68.71
42105;BME280;61464;51.472;5.712;2022-09-02T03:26:17;101427.03;;;14.02;68.28
42105;BME280;61464;51.472;5.712;2022-09-02T03:28:44;101425.41;;;14.01;68.44
42105;BME280;61464;51.472;5.712;2022-09-02T03:31:16;101427.03;;;13.94;68.58
42105;BME280;61464;51.472;5.712;2022-09-02T03:33:42;101432.91;;;13.96;68.66
42105;BME280;61464;51.472;5.712;2022-09-02T03:38:46;101424.75;;;14.07;68.48
42105;BME280;61464;51.472;5.712;2022-09-02T03:41:12;101419.84;;;14.04;68.76
42105;BME280;61464;51.472;5.712;2022-09-02T03:43:37;101414.31;;;14.07;68.86
42105;BME280;61464;51.472;5.712;2022-09-02T03:46:03;101416.06;;;14.06;69.18
42105;BME280;61464;51.472;5.712;2022-09-02T03:48:29;101414.78;;;14.11;69.02
42105;BME280;61464;51.472;5.712;2022-09-02T03:50:56;101411.19;;;14.03;68.71
42105;BME280;61464;51.472;5.712;2022-09-02T03:53:22;101403.03;;;14.06;68.70
42105;BME280;61464;51.472;5.712;2022-09-02T03:55:48;101400.91;;;14.02;69.03
42105;BME280;61464;51.472;5.712;2022-09-02T03:58:14;101397.81;;;14.06;68.88
42105;BME280;61464;51.472;5.712;2022-09-02T04:00:40;101399.09;;;14.11;68.78
42105;BME280;61464;51.472;5.712;2022-09-02T04:03:06;101400.41;;;14.15;68.29
42105;BME280;61464;51.472;5.712;2022-09-02T04:05:32;101399.25;;;14.25;67.70
42105;BME280;61464;51.472;5.712;2022-09-02T04:07:58;101386.38;;;14.24;67.15
42105;BME280;61464;51.472;5.712;2022-09-02T04:10:25;101395.34;;;14.29;66.37
42105;BME280;61464;51.472;5.712;2022-09-02T04:12:51;101397.09;;;14.29;66.43
42105;BME280;61464;51.472;5.712;2022-09-02T04:15:18;101382.59;;;14.26;66.35
42105;BME280;61464;51.472;5.712;2022-09-02T04:17:44;101394.03;;;14.34;67.03
42105;BME280;61464;51.472;5.712;2022-09-02T04:20:12;101401.84;;;14.42;66.78
42105;BME280;61464;51.472;5.712;2022-09-02T04:22:39;101396.09;;;14.46;66.91
42105;BME280;61464;51.472;5.712;2022-09-02T04:25:06;101393.34;;;14.40;66.65
42105;BME280;61464;51.472;5.712;2022-09-02T04:27:33;101388.78;;;14.42;66.53
42105;BME280;61464;51.472;5.712;2022-09-02T04:30:00;101393.78;;;14.52;66.57
42105;BME280;61464;51.472;5.712;2022-09-02T04:32:25;101393.31;;;14.56;66.13
42105;BME280;61464;51.472;5.712;2022-09-02T04:34:51;101397.38;;;14.59;65.79
42105;BME280;61464;51.472;5.712;2022-09-02T04:37:17;101383.53;;;14.58;65.63
42105;BME280;61464;51.472;5.712;2022-09-02T04:39:43;101398.03;;;14.61;65.44
42105;BME280;61464;51.472;5.712;2022-09-02T04:42:08;101385.47;;;14.64;65.27
42105;BME280;61464;51.472;5.712;2022-09-02T04:44:34;101386.25;;;14.65;65.05
42105;BME280;61464;51.472;5.712;2022-09-02T04:47:00;101382.19;;;14.62;64.83
42105;BME280;61464;51.472;5.712;2022-09-02T04:49:26;101390.00;;;14.71;64.46
42105;BME280;61464;51.472;5.712;2022-09-02T04:51:56;101378.56;;;14.72;64.48
42105;BME280;61464;51.472;5.712;2022-09-02T04:54:22;101382.63;;;14.74;64.98
42105;BME280;61464;51.472;5.712;2022-09-02T04:56:48;101380.84;;;14.75;64.62
42105;BME280;61464;51.472;5.712;2022-09-02T04:59:13;101386.19;;;14.81;64.82
42105;BME280;61464;51.472;5.712;2022-09-02T05:01:39;101381.75;;;14.82;64.72
42105;BME280;61464;51.472;5.712;2022-09-02T05:04:07;101379.97;;;14.82;64.87
42105;BME280;61464;51.472;5.712;2022-09-02T05:06:35;101382.56;;;14.82;64.61
42105;BME280;61464;51.472;5.712;2022-09-02T05:09:03;101380.28;;;14.87;64.92
42105;BME280;61464;51.472;5.712;2022-09-02T05:11:30;101393.34;;;14.87;64.47
42105;BME280;61464;51.472;5.712;2022-09-02T05:14:02;101395.59;;;14.91;64.35
42105;BME280;61464;51.472;5.712;2022-09-02T05:16:33;101392.97;;;14.91;64.14
42105;BME280;61464;51.472;5.712;2022-09-02T05:19:01;101383.00;;;14.94;64.43
42105;BME280;61464;51.472;5.712;2022-09-02T05:21:28;101398.66;;;15.02;63.98
42105;BME280;61464;51.472;5.712;2022-09-02T05:23:56;101393.72;;;15.07;63.82
42105;BME280;61464;51.472;5.712;2022-09-02T05:26:23;101398.00;;;15.00;63.70
42105;BME280;61464;51.472;5.712;2022-09-02T05:28:49;101395.72;;;15.05;63.89
42105;BME280;61464;51.472;5.712;2022-09-02T05:31:18;101394.72;;;15.06;64.11
42105;BME280;61464;51.472;5.712;2022-09-02T05:33:45;101397.44;;;15.13;63.53
42105;BME280;61464;51.472;5.712;2022-09-02T05:36:18;101388.03;;;15.04;63.64
42105;BME280;61464;51.472;5.712;2022-09-02T05:38:46;101396.00;;;15.11;63.70
42105;BME280;61464;51.472;5.712;2022-09-02T05:41:19;101394.19;;;15.11;63.52
42105;BME280;61464;51.472;5.712;2022-09-02T05:43:49;101397.22;;;15.23;63.16
42105;BME280;61464;51.472;5.712;2022-09-02T05:46:17;101405.19;;;15.29;63.19
42105;BME280;61464;51.472;5.712;2022-09-02T05:48:45;101398.44;;;15.35;62.98
42105;BME280;61464;51.472;5.712;2022-09-02T05:51:30;101393.06;;;15.37;62.90
42105;BME280;61464;51.472;5.712;2022-09-02T05:53:59;101393.69;;;15.39;63.12
42105;BME280;61464;51.472;5.712;2022-09-02T05:56:26;101393.97;;;15.44;62.63
42105;BME280;61464;51.472;5.712;2022-09-02T05:58:55;101393.78;;;15.45;62.42
42105;BME280;61464;51.472;5.712;2022-09-02T06:01:22;101398.63;;;15.57;62.51
42105;BME280;61464;51.472;5.712;2022-09-02T06:03:47;101395.00;;;15.58;62.09
42105;BME280;61464;51.472;5.712;2022-09-02T06:06:15;101393.84;;;15.60;62.05
42105;BME280;61464;51.472;5.712;2022-09-02T06:08:41;101387.56;;;15.69;61.94
42105;BME280;61464;51.472;5.712;2022-09-02T06:11:10;101386.75;;;15.69;61.77
42105;BME280;61464;51.472;5.712;2022-09-02T06:13:39;101390.19;;;15.69;62.10
42105;BME280;61464;51.472;5.712;2022-09-02T06:16:06;101395.25;;;15.71;61.76
42105;BME280;61464;51.472;5.712;2022-09-02T06:18:36;101398.66;;;15.72;62.04
42105;BME280;61464;51.472;5.712;2022-09-02T06:21:03;101390.47;;;15.75;61.60
42105;BME280;61464;51.472;5.712;2022-09-02T06:23:30;101390.25;;;15.84;61.33
42105;BME280;61464;51.472;5.712;2022-09-02T06:25:56;101389.69;;;15.89;61.28
42105;BME280;61464;51.472;5.712;2022-09-02T06:28:22;101395.50;;;15.99;60.69
42105;BME280;61464;51.472;5.712;2022-09-02T06:30:47;101396.41;;;16.06;60.75
42105;BME280;61464;51.472;5.712;2022-09-02T06:33:14;101385.84;;;16.00;61.14
42105;BME280;61464;51.472;5.712;2022-09-02T06:35:43;101394.50;;;16.00;60.98
42105;BME280;61464;51.472;5.712;2022-09-02T06:38:11;101385.22;;;16.13;60.47
42105;BME280;61464;51.472;5.712;2022-09-02T06:40:50;101384.94;;;16.07;60.88
42105;BME280;61464;51.472;5.712;2022-09-02T06:43:16;101387.66;;;16.29;60.63
42105;BME280;61464;51.472;5.712;2022-09-02T06:45:42;101380.53;;;16.23;60.44
42105;BME280;61464;51.472;5.712;2022-09-02T06:48:09;101377.81;;;16.31;60.44
42105;BME280;61464;51.472;5.712;2022-09-02T06:50:44;101385.75;;;16.38;60.76
42105;BME280;61464;51.472;5.712;2022-09-02T06:53:11;101386.31;;;16.48;60.45
42105;BME280;61464;51.472;5.712;2022-09-02T06:55:40;101384.56;;;16.70;59.83
42105;BME280;61464;51.472;5.712;2022-09-02T06:58:06;101387.19;;;16.70;59.68
42105;BME280;61464;51.472;5.712;2022-09-02T07:00:33;101385.75;;;16.82;59.14
42105;BME280;61464;51.472;5.712;2022-09-02T07:03:00;101374.84;;;17.00;59.23
42105;BME280;61464;51.472;5.712;2022-09-02T07:05:45;101372.97;;;16.94;58.77
42105;BME280;61464;51.472;5.712;2022-09-02T07:08:11;101370.41;;;17.01;58.80
42105;BME280;61464;51.472;5.712;2022-09-02T07:10:39;101371.78;;;17.18;58.64
42105;BME280;61464;51.472;5.712;2022-09-02T07:13:07;101380.78;;;17.30;58.50
42105;BME280;61464;51.472;5.712;2022-09-02T07:15:34;101376.72;;;17.49;57.71
42105;BME280;61464;51.472;5.712;2022-09-02T07:18:00;101371.56;;;17.63;57.49
42105;BME280;61464;51.472;5.712;2022-09-02T07:20:26;101372.53;;;17.55;57.55
42105;BME280;61464;51.472;5.712;2022-09-02T07:22:53;101371.13;;;17.59;57.46
42105;BME280;61464;51.472;5.712;2022-09-02T07:25:20;101373.75;;;17.59;58.01
42105;BME280;61464;51.472;5.712;2022-09-02T07:27:46;101361.56;;;17.73;57.16
42105;BME280;61464;51.472;5.712;2022-09-02T07:30:13;101365.34;;;17.92;56.92
42105;BME280;61464;51.472;5.712;2022-09-02T07:32:38;101359.75;;;18.02;56.71
42105;BME280;61464;51.472;5.712;2022-09-02T07:35:06;101354.16;;;18.12;56.34
42105;BME280;61464;51.472;5.712;2022-09-02T07:37:32;101359.53;;;18.32;56.14
42105;BME280;61464;51.472;5.712;2022-09-02T07:40:06;101361.41;;;18.51;55.69
42105;BME280;61464;51.472;5.712;2022-09-02T07:42:32;101368.50;;;18.50;55.29
42105;BME280;61464;51.472;5.712;2022-09-02T07:44:58;101365.91;;;18.57;55.51
42105;BME280;61464;51.472;5.712;2022-09-02T07:47:25;101353.81;;;18.76;55.43
42105;BME280;61464;51.472;5.712;2022-09-02T07:49:51;101361.34;;;18.79;55.08
42105;BME280;61464;51.472;5.712;2022-09-02T07:52:17;101353.09;;;19.09;54.54
42105;BME280;61464;51.472;5.712;2022-09-02T07:54:43;101349.91;;;19.20;54.52
42105;BME280;61464;51.472;5.712;2022-09-02T07:57:09;101365.91;;;19.32;53.92
42105;BME280;61464;51.472;5.712;2022-09-02T07:59:35;101353.56;;;19.26;53.94
42105;BME280;61464;51.472;5.712;2022-09-02T08:02:01;101356.78;;;19.35;53.71
42105;BME280;61464;51.472;5.712;2022-09-02T08:04:27;101368.94;;;19.56;53.91
42105;BME280;61464;51.472;5.712;2022-09-02T08:06:54;101361.25;;;19.81;53.21
42105;BME280;61464;51.472;5.712;2022-09-02T08:09:21;101363.66;;;19.62;53.27
42105;BME280;61464;51.472;5.712;2022-09-02T08:11:49;101363.06;;;19.67;53.29
42105;BME280;61464;51.472;5.712;2022-09-02T08:14:23;101353.09;;;20.02;53.01
42105;BME280;61464;51.472;5.712;2022-09-02T08:16:52;101361.53;;;20.31;51.45
42105;BME280;61464;51.472;5.712;2022-09-02T08:19:18;101349.13;;;20.45;50.78
42105;BME280;61464;51.472;5.712;2022-09-02T08:21:44;101355.56;;;20.56;50.57
42105;BME280;61464;51.472;5.712;2022-09-02T08:24:10;101355.00;;;20.85;49.54
42105;BME280;61464;51.472;5.712;2022-09-02T08:26:36;101353.94;;;20.61;50.51
42105;BME280;61464;51.472;5.712;2022-09-02T08:29:06;101351.16;;;20.43;50.22
42105;BME280;61464;51.472;5.712;2022-09-02T08:31:33;101350.66;;;20.66;50.33
42105;BME280;61464;51.472;5.712;2022-09-02T08:33:59;101345.78;;;20.63;49.99
42105;BME280;61464;51.472;5.712;2022-09-02T08:36:26;101345.88;;;20.88;49.60
42105;BME280;61464;51.472;5.712;2022-09-02T08:38:52;101346.88;;;20.87;49.66
42105;BME280;61464;51.472;5.712;2022-09-02T08:42:01;101344.50;;;21.10;49.56
42105;BME280;61464;51.472;5.712;2022-09-02T08:44:35;101336.81;;;21.34;48.55
42105;BME280;61464;51.472;5.712;2022-09-02T08:47:05;101340.56;;;21.52;48.33
42105;BME280;61464;51.472;5.712;2022-09-02T08:49:44;101344.75;;;21.78;47.96
42105;BME280;61464;51.472;5.712;2022-09-02T08:52:42;101344.41;;;21.49;48.53
42105;BME280;61464;51.472;5.712;2022-09-02T08:55:23;101339.78;;;21.88;47.92
42105;BME280;61464;51.472;5.712;2022-09-02T08:57:51;101336.78;;;21.84;47.81
42105;BME280;61464;51.472;5.712;2022-09-02T09:00:17;101334.56;;;22.18;47.25
42105;BME280;61464;51.472;5.712;2022-09-02T09:03:32;101335.47;;;22.12;47.18
42105;BME280;61464;51.472;5.712;2022-09-02T09:05:56;101336.84;;;22.33;46.03
42105;BME280;61464;51.472;5.712;2022-09-02T09:08:50;101327.63;;;22.24;46.60
42105;BME280;61464;51.472;5.712;2022-09-02T09:11:31;101330.56;;;22.64;45.66
42105;BME280;61464;51.472;5.712;2022-09-02T09:17:04;101336.00;;;23.12;44.70
42105;BME280;61464;51.472;5.712;2022-09-02T09:19:47;101331.97;;;23.09;43.98
42105;BME280;61464;51.472;5.712;2022-09-02T09:22:21;101331.09;;;23.50;43.98
42105;BME280;61464;51.472;5.712;2022-09-02T09:24:50;101332.78;;;23.68;42.89
42105;BME280;61464;51.472;5.712;2022-09-02T09:27:19;101337.53;;;23.78;42.60
42105;BME280;61464;51.472;5.712;2022-09-02T09:29:46;101331.44;;;23.42;42.96
42105;BME280;61464;51.472;5.712;2022-09-02T09:37:31;101329.69;;;23.72;41.85
42105;BME280;61464;51.472;5.712;2022-09-02T09:39:57;101320.84;;;23.42;42.70
42105;BME280;61464;51.472;5.712;2022-09-02T09:42:35;101325.09;;;23.55;42.17
42105;BME280;61464;51.472;5.712;2022-09-02T09:53:27;101315.53;;;23.89;41.34
42105;BME280;61464;51.472;5.712;2022-09-02T09:56:00;101309.50;;;24.06;40.69
42105;BME280;61464;51.472;5.712;2022-09-02T09:58:35;101306.28;;;24.33;40.46
42105;BME280;61464;51.472;5.712;2022-09-02T10:04:10;101306.72;;;24.01;41.40
42105;BME280;61464;51.472;5.712;2022-09-02T10:06:43;101311.13;;;24.24;40.68
42105;BME280;61464;51.472;5.712;2022-09-02T10:12:00;101305.13;;;24.00;40.62
42105;BME280;61464;51.472;5.712;2022-09-02T10:14:46;101295.00;;;23.85;41.59
42105;BME280;61464;51.472;5.712;2022-09-02T10:17:49;101302.53;;;23.53;41.80
42105;BME280;61464;51.472;5.712;2022-09-02T10:20:51;101293.97;;;23.62;41.47
42105;BME280;61464;51.472;5.712;2022-09-02T10:23:51;101292.09;;;23.75;41.58
42105;BME280;61464;51.472;5.712;2022-09-02T10:26:28;101286.38;;;23.78;40.84
42105;BME280;61464;51.472;5.712;2022-09-02T10:40:26;101265.94;;;23.90;39.94
42105;BME280;61464;51.472;5.712;2022-09-02T10:43:36;101268.81;;;24.29;39.56
42105;BME280;61464;51.472;5.712;2022-09-02T10:46:08;101265.06;;;24.13;38.79
42105;BME280;61464;51.472;5.712;2022-09-02T10:51:44;101258.00;;;24.19;38.48
42105;BME280;61464;51.472;5.712;2022-09-02T10:54:38;101250.59;;;24.04;37.69
42105;BME280;61464;51.472;5.712;2022-09-02T10:57:18;101258.16;;;24.41;37.97
42105;BME280;61464;51.472;5.712;2022-09-02T11:00:16;101250.13;;;24.24;37.14
42105;BME280;61464;51.472;5.712;2022-09-02T11:03:11;101261.88;;;24.57;37.20
42105;BME280;61464;51.472;5.712;2022-09-02T11:05:56;101240.81;;;24.67;35.33
42105;BME280;61464;51.472;5.712;2022-09-02T11:08:50;101249.59;;;24.84;36.14
42105;BME280;61464;51.472;5.712;2022-09-02T11:14:34;101250.09;;;24.98;34.56
42105;BME280;61464;51.472;5.712;2022-09-02T11:20:20;101229.78;;;25.09;34.22
42105;BME280;61464;51.472;5.712;2022-09-02T11:26:01;101231.00;;;24.84;33.71
42105;BME280;61464;51.472;5.712;2022-09-02T11:31:43;101233.31;;;25.32;31.58
42105;BME280;61464;51.472;5.712;2022-09-02T11:36:47;101231.34;;;24.88;33.00
42105;BME280;61464;51.472;5.712;2022-09-02T11:39:42;101221.91;;;24.80;32.79
42105;BME280;61464;51.472;5.712;2022-09-02T11:53:55;101207.78;;;25.53;31.42
42105;BME280;61464;51.472;5.712;2022-09-02T11:56:34;101205.63;;;25.10;31.80
42105;BME280;61464;51.472;5.712;2022-09-02T11:59:00;101214.44;;;24.77;31.72
42105;BME280;61464;51.472;5.712;2022-09-02T12:01:50;101200.06;;;24.44;32.24
42105;BME280;61464;51.472;5.712;2022-09-02T12:04:23;101207.69;;;24.69;32.19
42105;BME280;61464;51.472;5.712;2022-09-02T12:09:52;101190.84;;;25.81;30.57
42105;BME280;61464;51.472;5.712;2022-09-02T12:18:27;101186.63;;;25.85;31.13
42105;BME280;61464;51.472;5.712;2022-09-02T12:21:06;101189.31;;;25.63;31.14
42105;BME280;61464;51.472;5.712;2022-09-02T12:29:31;101189.94;;;25.48;30.54
42105;BME280;61464;51.472;5.712;2022-09-02T12:31:57;101193.56;;;25.03;30.81
42105;BME280;61464;51.472;5.712;2022-09-02T12:34:50;101197.31;;;24.68;32.07
42105;BME280;61464;51.472;5.712;2022-09-02T12:37:51;101174.63;;;25.33;31.67
42105;BME280;61464;51.472;5.712;2022-09-02T12:40:29;101169.81;;;25.57;31.03
42105;BME280;61464;51.472;5.712;2022-09-02T12:43:00;101173.53;;;25.56;30.92
42105;BME280;61464;51.472;5.712;2022-09-02T12:45:30;101173.63;;;25.88;30.03
42105;BME280;61464;51.472;5.712;2022-09-02T12:48:10;101166.78;;;25.93;30.61
42105;BME280;61464;51.472;5.712;2022-09-02T12:50:54;101157.75;;;26.26;30.53
42105;BME280;61464;51.472;5.712;2022-09-02T12:56:04;101166.84;;;26.30;30.56
42105;BME280;61464;51.472;5.712;2022-09-02T12:58:43;101166.41;;;26.43;29.80
42105;BME280;61464;51.472;5.712;2022-09-02T13:31:23;101125.63;;;26.00;30.20
42105;BME280;61464;51.472;5.712;2022-09-02T13:34:04;101124.09;;;26.42;29.36
42105;BME280;61464;51.472;5.712;2022-09-02T13:36:42;101124.91;;;26.47;30.14
42105;BME280;61464;51.472;5.712;2022-09-02T13:39:23;101123.75;;;26.33;30.04
42105;BME280;61464;51.472;5.712;2022-09-02T13:41:49;101113.88;;;26.28;30.36
42105;BME280;61464;51.472;5.712;2022-09-02T13:44:27;101112.16;;;26.12;30.13
42105;BME280;61464;51.472;5.712;2022-09-02T13:47:15;101123.34;;;26.14;29.82
42105;BME280;61464;51.472;5.712;2022-09-02T13:49:46;101110.44;;;25.74;30.64
42105;BME280;61464;51.472;5.712;2022-09-02T13:52:18;101113.06;;;25.68;30.66
42105;BME280;61464;51.472;5.712;2022-09-02T13:54:53;101112.06;;;26.02;29.79
42105;BME280;61464;51.472;5.712;2022-09-02T13:57:25;101107.28;;;26.04;30.03
42105;BME280;61464;51.472;5.712;2022-09-02T13:59:54;101105.19;;;26.43;29.69
42105;BME280;61464;51.472;5.712;2022-09-02T14:02:33;101103.41;;;26.54;29.61
42105;BME280;61464;51.472;5.712;2022-09-02T14:07:44;101092.81;;;25.89;30.17
42105;BME280;61464;51.472;5.712;2022-09-02T14:10:15;101086.63;;;26.11;30.23
42105;BME280;61464;51.472;5.712;2022-09-02T14:12:42;101077.97;;;25.66;30.36
42105;BME280;61464;51.472;5.712;2022-09-02T14:15:13;101079.56;;;25.95;29.65
42105;BME280;61464;51.472;5.712;2022-09-02T14:17:39;101079.81;;;26.25;29.60
42105;BME280;61464;51.472;5.712;2022-09-02T14:20:22;101077.47;;;26.39;29.06
42105;BME280;61464;51.472;5.712;2022-09-02T14:23:06;101066.50;;;26.25;29.32
42105;BME280;61464;51.472;5.712;2022-09-02T14:25:56;101069.75;;;25.73;30.51
42105;BME280;61464;51.472;5.712;2022-09-02T14:28:28;101062.50;;;25.63;29.89
42105;BME280;61464;51.472;5.712;2022-09-02T14:31:04;101065.44;;;26.26;29.64
42105;BME280;61464;51.472;5.712;2022-09-02T14:33:44;101055.50;;;26.54;29.94
42105;BME280;61464;51.472;5.712;2022-09-02T14:38:56;101054.16;;;26.09;29.99
42105;BME280;61464;51.472;5.712;2022-09-02T14:41:24;101047.75;;;26.10;30.01
42105;BME280;61464;51.472;5.712;2022-09-02T14:44:36;101041.06;;;25.75;30.57
42105;BME280;61464;51.472;5.712;2022-09-02T14:46:55;101050.09;;;26.01;30.06
42105;BME280;61464;51.472;5.712;2022-09-02T14:49:28;101042.59;;;25.98;29.53
42105;BME280;61464;51.472;5.712;2022-09-02T14:51:59;101053.53;;;26.39;29.66
42105;BME280;61464;51.472;5.712;2022-09-02T14:54:54;101043.91;;;26.76;29.00
42105;BME280;61464;51.472;5.712;2022-09-02T14:57:31;101038.78;;;26.64;28.56
42105;BME280;61464;51.472;5.712;2022-09-02T15:00:12;101038.25;;;26.62;28.71
42105;BME280;61464;51.472;5.712;2022-09-02T15:02:42;101042.59;;;26.83;28.15
42105;BME280;61464;51.472;5.712;2022-09-02T15:05:11;101044.94;;;26.69;28.58
42105;BME280;61464;51.472;5.712;2022-09-02T15:07:41;101037.00;;;26.80;28.17
42105;BME280;61464;51.472;5.712;2022-09-02T15:10:08;101035.69;;;26.87;28.67
42105;BME280;61464;51.472;5.712;2022-09-02T15:12:40;101028.19;;;26.74;28.21